Louise Cenac — WDI3433 — position and weather

sailwx.info

Track history (hours):
 
Tides and Currents Weather Stations Pressure Air Temp Water Temp Dewpoint Dewpoint Depression Visibility Wind Speed Wind Dir Waves Ship Positions

Louise Cenac

Owner: Cenac Marine Services, Houma, LA. More information available from US FCC via Universal Licensing System and Coast Guard Vessel Documentation Center.

Last reported at 2017-Nov-20 00:30 UTC. Time now 2017-Nov-24 00:23 UTC.
Position N 29°47' W 092°11'.

Length 22 m; draft 3.3 m.

Type: Tug. MMSI: 367688280.

Date/timePositionNaut miles runAvg speedWind from/ knotsBaromVisibWave heightAir tempDewpointWater temp
2017-Nov-20 00:30N 29°47' W 092°11'0 0.0
2017-Nov-20 00:00N 29°47' W 092°11'0 0.0
2017-Nov-19 23:30N 29°47' W 092°11'0 0.0
2017-Nov-19 23:00N 29°47' W 092°11'0 0.0
2017-Nov-19 22:30N 29°47' W 092°11'0 0.0
2017-Nov-19 22:01N 29°47' W 092°11'0 0.0
2017-Nov-19 21:31N 29°47' W 092°11'0 0.0
2017-Nov-19 21:00N 29°47' W 092°11'0 0.0
2017-Nov-19 20:30N 29°47' W 092°11'0 0.0
2017-Nov-19 20:00N 29°47' W 092°11'0 0.0
2017-Nov-19 19:31N 29°47' W 092°11'0 0.2
2017-Nov-19 19:00N 29°47' W 092°11'0 0.1
2017-Nov-19 18:31N 29°47' W 092°11'0 0.0
2017-Nov-19 18:01N 29°47' W 092°11'0 0.0
2017-Nov-19 17:30N 29°47' W 092°11'0 1.0
2017-Nov-19 17:00N 29°46' W 092°10'0 0.2
2017-Nov-19 16:30N 29°47' W 092°10'2 4.1
2017-Nov-19 16:00N 29°47' W 092°08'3 6.3
2017-Nov-19 15:29N 29°48' W 092°05'3 5.4
2017-Nov-19 15:00N 29°49' W 092°02'  
2017-Nov-12 08:15N 29°33' W 090°24'1 3.7
2017-Nov-12 08:00N 29°33' W 090°25'3 5.3
2017-Nov-12 07:30N 29°33' W 090°28'3 5.5
2017-Nov-12 07:00N 29°34' W 090°31'3 5.2
2017-Nov-12 06:30N 29°34' W 090°34'2 4.7
2017-Nov-12 06:00N 29°35' W 090°36'2 4.9
2017-Nov-12 05:30N 29°36' W 090°39'2 3.4
2017-Nov-12 05:00N 29°36' W 090°41'1 3.0
2017-Nov-12 04:30N 29°37' W 090°43'1 1.6
2017-Nov-12 04:00N 29°36' W 090°43'2 3.6
2017-Nov-12 03:30N 29°34' W 090°43'2 3.6
2017-Nov-12 03:00N 29°33' W 090°45'0 0.2
2017-Nov-12 02:30N 29°33' W 090°45'1 1.7
2017-Nov-12 02:00N 29°32' W 090°46'3 5.8
2017-Nov-12 01:30N 29°32' W 090°49'3 5.9
2017-Nov-12 00:59N 29°32' W 090°53'3 6.1
2017-Nov-12 00:28N 29°34' W 090°56'61 4.0
2017-Nov-11 09:07N 29°48' W 092°04'1 6.0
2017-Nov-11 08:59N 29°48' W 092°05'3 5.9
2017-Nov-11 08:29N 29°47' W 092°08'12 3.9
2017-Nov-11 05:25N 29°51' W 092°22'51 4.0
2017-Nov-10 16:30N 30°06' W 093°18'0 0.0
2017-Nov-10 16:00N 30°06' W 093°18'0 0.0
2017-Nov-10 15:30N 30°06' W 093°18'0 0.6
2017-Nov-10 15:00N 30°06' W 093°19'2 3.1
2017-Nov-10 14:30N 30°07' W 093°20'1 2.5
2017-Nov-10 14:00N 30°08' W 093°19'0 0.5
2017-Nov-10 13:30N 30°08' W 093°19'0 0.0
2017-Nov-10 13:00N 30°08' W 093°19'0 0.0
2017-Nov-10 12:30N 30°08' W 093°19'0 0.0
2017-Nov-10 12:00N 30°08' W 093°19'0 0.0
2017-Nov-10 11:30N 30°08' W 093°19'0 0.0
2017-Nov-10 11:00N 30°08' W 093°19'0 0.0
2017-Nov-10 10:24N 30°08' W 093°19'0 0.0
2017-Nov-10 10:00N 30°08' W 093°19'0 0.0
2017-Nov-10 09:30N 30°08' W 093°19'0 0.0
2017-Nov-10 09:00N 30°08' W 093°19'0 0.0
2017-Nov-10 08:30N 30°08' W 093°19'0 0.0
2017-Nov-10 08:00N 30°08' W 093°19'0 0.0
2017-Nov-10 07:30N 30°08' W 093°19'0 0.0
2017-Nov-10 07:00N 30°08' W 093°19'0 0.0
2017-Nov-10 06:30N 30°08' W 093°19'0 0.0
2017-Nov-10 06:00N 30°08' W 093°19'0 0.0
2017-Nov-10 05:30N 30°08' W 093°19'0 0.0
2017-Nov-10 05:00N 30°08' W 093°19'0 0.0
2017-Nov-10 04:30N 30°08' W 093°19'0 0.0
2017-Nov-10 04:00N 30°08' W 093°19'0 0.0
2017-Nov-10 03:30N 30°08' W 093°19'0 0.0
2017-Nov-10 03:00N 30°08' W 093°19'0 0.0
2017-Nov-10 02:30N 30°08' W 093°19'0 0.0
2017-Nov-10 02:00N 30°08' W 093°19'0 0.0
2017-Nov-10 01:30N 30°08' W 093°19'0 0.0
2017-Nov-10 01:00N 30°08' W 093°19'  
Track history (hours):
 
Tides and Currents Weather Stations Pressure Air Temp Water Temp Dewpoint Dewpoint Depression Visibility Wind Speed Wind Dir Waves Ship Positions

Louise Cenac

Owner: Cenac Marine Services, Houma, LA. More information available from US FCC via Universal Licensing System and Coast Guard Vessel Documentation Center.

Last reported at 2017-Nov-20 00:30 UTC. Time now 2017-Nov-24 00:23 UTC.
Position N 29°47' W 092°11'.

Length 22 m; draft 3.3 m.

Type: Tug. MMSI: 367688280.

Date/timePositionNaut miles runAvg speedWind from/ knotsBaromVisibWave heightAir tempDewpointWater temp
2017-Nov-20 00:30N 29°47' W 092°11'0 0.0
2017-Nov-20 00:00N 29°47' W 092°11'0 0.0
2017-Nov-19 23:30N 29°47' W 092°11'0 0.0
2017-Nov-19 23:00N 29°47' W 092°11'0 0.0
2017-Nov-19 22:30N 29°47' W 092°11'0 0.0
2017-Nov-19 22:01N 29°47' W 092°11'0 0.0
2017-Nov-19 21:31N 29°47' W 092°11'0 0.0
2017-Nov-19 21:00N 29°47' W 092°11'0 0.0
2017-Nov-19 20:30N 29°47' W 092°11'0 0.0
2017-Nov-19 20:00N 29°47' W 092°11'0 0.0
2017-Nov-19 19:31N 29°47' W 092°11'0 0.2
2017-Nov-19 19:00N 29°47' W 092°11'0 0.1
2017-Nov-19 18:31N 29°47' W 092°11'0 0.0
2017-Nov-19 18:01N 29°47' W 092°11'0 0.0
2017-Nov-19 17:30N 29°47' W 092°11'0 1.0
2017-Nov-19 17:00N 29°46' W 092°10'0 0.2
2017-Nov-19 16:30N 29°47' W 092°10'2 4.1
2017-Nov-19 16:00N 29°47' W 092°08'3 6.3
2017-Nov-19 15:29N 29°48' W 092°05'3 5.4
2017-Nov-19 15:00N 29°49' W 092°02'  
2017-Nov-12 08:15N 29°33' W 090°24'1 3.7
2017-Nov-12 08:00N 29°33' W 090°25'3 5.3
2017-Nov-12 07:30N 29°33' W 090°28'3 5.5
2017-Nov-12 07:00N 29°34' W 090°31'3 5.2
2017-Nov-12 06:30N 29°34' W 090°34'2 4.7
2017-Nov-12 06:00N 29°35' W 090°36'2 4.9
2017-Nov-12 05:30N 29°36' W 090°39'2 3.4
2017-Nov-12 05:00N 29°36' W 090°41'1 3.0
2017-Nov-12 04:30N 29°37' W 090°43'1 1.6
2017-Nov-12 04:00N 29°36' W 090°43'2 3.6
2017-Nov-12 03:30N 29°34' W 090°43'2 3.6
2017-Nov-12 03:00N 29°33' W 090°45'0 0.2
2017-Nov-12 02:30N 29°33' W 090°45'1 1.7
2017-Nov-12 02:00N 29°32' W 090°46'3 5.8
2017-Nov-12 01:30N 29°32' W 090°49'3 5.9
2017-Nov-12 00:59N 29°32' W 090°53'3 6.1
2017-Nov-12 00:28N 29°34' W 090°56'61 4.0
2017-Nov-11 09:07N 29°48' W 092°04'1 6.0
2017-Nov-11 08:59N 29°48' W 092°05'3 5.9
2017-Nov-11 08:29N 29°47' W 092°08'12 3.9
2017-Nov-11 05:25N 29°51' W 092°22'51 4.0
2017-Nov-10 16:30N 30°06' W 093°18'0 0.0
2017-Nov-10 16:00N 30°06' W 093°18'0 0.0
2017-Nov-10 15:30N 30°06' W 093°18'0 0.6
2017-Nov-10 15:00N 30°06' W 093°19'2 3.1
2017-Nov-10 14:30N 30°07' W 093°20'1 2.5
2017-Nov-10 14:00N 30°08' W 093°19'0 0.5
2017-Nov-10 13:30N 30°08' W 093°19'0 0.0
2017-Nov-10 13:00N 30°08' W 093°19'0 0.0
2017-Nov-10 12:30N 30°08' W 093°19'0 0.0
2017-Nov-10 12:00N 30°08' W 093°19'0 0.0
2017-Nov-10 11:30N 30°08' W 093°19'0 0.0
2017-Nov-10 11:00N 30°08' W 093°19'0 0.0
2017-Nov-10 10:24N 30°08' W 093°19'0 0.0
2017-Nov-10 10:00N 30°08' W 093°19'0 0.0
2017-Nov-10 09:30N 30°08' W 093°19'0 0.0
2017-Nov-10 09:00N 30°08' W 093°19'0 0.0
2017-Nov-10 08:30N 30°08' W 093°19'0 0.0
2017-Nov-10 08:00N 30°08' W 093°19'0 0.0
2017-Nov-10 07:30N 30°08' W 093°19'0 0.0
2017-Nov-10 07:00N 30°08' W 093°19'0 0.0
2017-Nov-10 06:30N 30°08' W 093°19'0 0.0
2017-Nov-10 06:00N 30°08' W 093°19'0 0.0
2017-Nov-10 05:30N 30°08' W 093°19'0 0.0
2017-Nov-10 05:00N 30°08' W 093°19'0 0.0
2017-Nov-10 04:30N 30°08' W 093°19'0 0.0
2017-Nov-10 04:00N 30°08' W 093°19'0 0.0
2017-Nov-10 03:30N 30°08' W 093°19'0 0.0
2017-Nov-10 03:00N 30°08' W 093°19'0 0.0
2017-Nov-10 02:30N 30°08' W 093°19'0 0.0
2017-Nov-10 02:00N 30°08' W 093°19'0 0.0
2017-Nov-10 01:30N 30°08' W 093°19'0 0.0
2017-Nov-10 01:00N 30°08' W 093°19'  

Dump ship's entire track history